sensor_id;sensor_type;location;lat;lon;timestamp;P1;durP1;ratioP1;P2;durP2;ratioP2
9445;SDS011;4761;49.490;10.908;2024-01-07T00:00:33;3.20;;;2.90;;
9445;SDS011;4761;49.490;10.908;2024-01-07T00:02:59;3.80;;;3.17;;
9445;SDS011;4761;49.490;10.908;2024-01-07T00:05:24;3.70;;;3.20;;
9445;SDS011;4761;49.490;10.908;2024-01-07T00:07:50;3.23;;;2.93;;
9445;SDS011;4761;49.490;10.908;2024-01-07T00:10:16;3.53;;;3.10;;
9445;SDS011;4761;49.490;10.908;2024-01-07T00:12:42;3.37;;;2.93;;
9445;SDS011;4761;49.490;10.908;2024-01-07T00:15:08;4.57;;;3.20;;
9445;SDS011;4761;49.490;10.908;2024-01-07T00:17:34;4.17;;;2.93;;
9445;SDS011;4761;49.490;10.908;2024-01-07T00:20:00;4.07;;;3.23;;
9445;SDS011;4761;49.490;10.908;2024-01-07T00:22:25;3.83;;;3.07;;
9445;SDS011;4761;49.490;10.908;2024-01-07T00:24:51;3.20;;;2.63;;
9445;SDS011;4761;49.490;10.908;2024-01-07T00:27:16;3.47;;;2.87;;
9445;SDS011;4761;49.490;10.908;2024-01-07T00:29:42;3.53;;;3.00;;
9445;SDS011;4761;49.490;10.908;2024-01-07T00:32:07;3.37;;;2.80;;
9445;SDS011;4761;49.490;10.908;2024-01-07T00:34:33;4.00;;;3.03;;
9445;SDS011;4761;49.490;10.908;2024-01-07T00:36:58;3.27;;;2.83;;
9445;SDS011;4761;49.490;10.908;2024-01-07T00:39:24;3.10;;;2.80;;
9445;SDS011;4761;49.490;10.908;2024-01-07T00:41:49;5.23;;;3.20;;
9445;SDS011;4761;49.490;10.908;2024-01-07T00:44:15;3.83;;;2.90;;
9445;SDS011;4761;49.490;10.908;2024-01-07T00:46:40;4.07;;;3.00;;
9445;SDS011;4761;49.490;10.908;2024-01-07T00:49:06;3.70;;;2.80;;
9445;SDS011;4761;49.490;10.908;2024-01-07T00:51:31;2.97;;;2.63;;
9445;SDS011;4761;49.490;10.908;2024-01-07T00:53:57;2.83;;;2.53;;
9445;SDS011;4761;49.490;10.908;2024-01-07T00:56:25;3.93;;;2.90;;
9445;SDS011;4761;49.490;10.908;2024-01-07T00:58:51;3.40;;;3.10;;
9445;SDS011;4761;49.490;10.908;2024-01-07T01:01:17;4.27;;;3.10;;
9445;SDS011;4761;49.490;10.908;2024-01-07T01:03:42;3.93;;;3.30;;
9445;SDS011;4761;49.490;10.908;2024-01-07T01:06:08;4.37;;;3.20;;
9445;SDS011;4761;49.490;10.908;2024-01-07T01:08:33;3.23;;;2.83;;
9445;SDS011;4761;49.490;10.908;2024-01-07T01:10:59;4.23;;;3.10;;
9445;SDS011;4761;49.490;10.908;2024-01-07T01:13:24;3.50;;;2.83;;
9445;SDS011;4761;49.490;10.908;2024-01-07T01:15:50;4.57;;;3.00;;
9445;SDS011;4761;49.490;10.908;2024-01-07T01:18:15;3.50;;;3.20;;
9445;SDS011;4761;49.490;10.908;2024-01-07T01:20:41;3.47;;;2.90;;
9445;SDS011;4761;49.490;10.908;2024-01-07T01:23:06;4.13;;;3.00;;
9445;SDS011;4761;49.490;10.908;2024-01-07T01:25:31;4.17;;;3.23;;
9445;SDS011;4761;49.490;10.908;2024-01-07T01:27:57;4.13;;;3.00;;
9445;SDS011;4761;49.490;10.908;2024-01-07T01:30:23;3.87;;;3.10;;
9445;SDS011;4761;49.490;10.908;2024-01-07T01:32:48;3.87;;;3.20;;
9445;SDS011;4761;49.490;10.908;2024-01-07T01:35:14;3.57;;;3.07;;
9445;SDS011;4761;49.490;10.908;2024-01-07T01:37:40;3.00;;;2.70;;
9445;SDS011;4761;49.490;10.908;2024-01-07T01:40:05;3.47;;;3.17;;
9445;SDS011;4761;49.490;10.908;2024-01-07T01:42:31;3.20;;;2.90;;
9445;SDS011;4761;49.490;10.908;2024-01-07T01:44:57;3.37;;;2.83;;
9445;SDS011;4761;49.490;10.908;2024-01-07T01:47:26;3.23;;;2.90;;
9445;SDS011;4761;49.490;10.908;2024-01-07T01:49:52;3.53;;;3.07;;
9445;SDS011;4761;49.490;10.908;2024-01-07T01:52:18;3.77;;;3.17;;
9445;SDS011;4761;49.490;10.908;2024-01-07T01:54:44;3.77;;;3.00;;
9445;SDS011;4761;49.490;10.908;2024-01-07T01:57:12;4.13;;;3.37;;
9445;SDS011;4761;49.490;10.908;2024-01-07T01:59:42;4.20;;;3.37;;
9445;SDS011;4761;49.490;10.908;2024-01-07T02:02:08;3.80;;;2.87;;
9445;SDS011;4761;49.490;10.908;2024-01-07T02:04:33;4.37;;;3.70;;
9445;SDS011;4761;49.490;10.908;2024-01-07T02:06:59;3.93;;;3.00;;
9445;SDS011;4761;49.490;10.908;2024-01-07T02:09:24;3.60;;;3.20;;
9445;SDS011;4761;49.490;10.908;2024-01-07T02:12:00;4.03;;;3.00;;
9445;SDS011;4761;49.490;10.908;2024-01-07T02:14:27;3.93;;;3.33;;
9445;SDS011;4761;49.490;10.908;2024-01-07T02:16:52;4.87;;;2.80;;
9445;SDS011;4761;49.490;10.908;2024-01-07T02:19:18;3.80;;;3.23;;
9445;SDS011;4761;49.490;10.908;2024-01-07T02:21:46;3.33;;;2.67;;
9445;SDS011;4761;49.490;10.908;2024-01-07T02:24:18;3.90;;;3.30;;
9445;SDS011;4761;49.490;10.908;2024-01-07T02:26:43;3.90;;;3.40;;
9445;SDS011;4761;49.490;10.908;2024-01-07T02:29:09;3.97;;;3.30;;
9445;SDS011;4761;49.490;10.908;2024-01-07T02:31:35;3.37;;;3.07;;
9445;SDS011;4761;49.490;10.908;2024-01-07T02:34:00;3.17;;;2.87;;
9445;SDS011;4761;49.490;10.908;2024-01-07T02:36:26;5.23;;;3.77;;
9445;SDS011;4761;49.490;10.908;2024-01-07T02:38:51;4.87;;;4.00;;
9445;SDS011;4761;49.490;10.908;2024-01-07T02:41:17;5.20;;;3.97;;
9445;SDS011;4761;49.490;10.908;2024-01-07T02:43:43;5.18;;;3.88;;
9445;SDS011;4761;49.490;10.908;2024-01-07T02:46:08;5.07;;;3.80;;
9445;SDS011;4761;49.490;10.908;2024-01-07T02:48:34;4.47;;;3.60;;
9445;SDS011;4761;49.490;10.908;2024-01-07T02:51:00;4.80;;;3.63;;
9445;SDS011;4761;49.490;10.908;2024-01-07T02:53:28;5.57;;;4.30;;
9445;SDS011;4761;49.490;10.908;2024-01-07T02:55:53;8.33;;;4.97;;
9445;SDS011;4761;49.490;10.908;2024-01-07T02:58:19;5.97;;;4.20;;
9445;SDS011;4761;49.490;10.908;2024-01-07T03:00:44;6.47;;;4.70;;
9445;SDS011;4761;49.490;10.908;2024-01-07T03:03:10;7.43;;;4.80;;
9445;SDS011;4761;49.490;10.908;2024-01-07T03:05:35;7.67;;;5.00;;
9445;SDS011;4761;49.490;10.908;2024-01-07T03:08:01;7.97;;;5.17;;
9445;SDS011;4761;49.490;10.908;2024-01-07T03:10:27;7.13;;;5.10;;
9445;SDS011;4761;49.490;10.908;2024-01-07T03:12:52;8.70;;;5.90;;
9445;SDS011;4761;49.490;10.908;2024-01-07T03:15:18;9.33;;;5.87;;
9445;SDS011;4761;49.490;10.908;2024-01-07T03:17:43;9.43;;;5.93;;
9445;SDS011;4761;49.490;10.908;2024-01-07T03:20:09;7.63;;;5.13;;
9445;SDS011;4761;49.490;10.908;2024-01-07T03:22:35;9.57;;;6.37;;
9445;SDS011;4761;49.490;10.908;2024-01-07T03:25:01;9.60;;;6.20;;
9445;SDS011;4761;49.490;10.908;2024-01-07T03:27:27;8.03;;;5.63;;
9445;SDS011;4761;49.490;10.908;2024-01-07T03:29:52;7.73;;;5.43;;
9445;SDS011;4761;49.490;10.908;2024-01-07T03:32:17;8.07;;;5.57;;
9445;SDS011;4761;49.490;10.908;2024-01-07T03:34:43;7.30;;;5.37;;
9445;SDS011;4761;49.490;10.908;2024-01-07T03:37:09;7.27;;;4.90;;
9445;SDS011;4761;49.490;10.908;2024-01-07T03:39:34;6.75;;;5.30;;
9445;SDS011;4761;49.490;10.908;2024-01-07T03:42:00;7.40;;;5.40;;
9445;SDS011;4761;49.490;10.908;2024-01-07T03:44:25;7.53;;;4.87;;
9445;SDS011;4761;49.490;10.908;2024-01-07T03:46:51;8.10;;;5.57;;
9445;SDS011;4761;49.490;10.908;2024-01-07T03:49:16;7.70;;;5.30;;
9445;SDS011;4761;49.490;10.908;2024-01-07T03:51:43;7.47;;;5.57;;
9445;SDS011;4761;49.490;10.908;2024-01-07T03:54:08;7.57;;;5.27;;
9445;SDS011;4761;49.490;10.908;2024-01-07T03:56:34;6.63;;;5.07;;
9445;SDS011;4761;49.490;10.908;2024-01-07T03:58:59;6.30;;;4.80;;
9445;SDS011;4761;49.490;10.908;2024-01-07T04:01:25;7.67;;;5.30;;
9445;SDS011;4761;49.490;10.908;2024-01-07T04:03:50;7.40;;;5.40;;
9445;SDS011;4761;49.490;10.908;2024-01-07T04:06:16;6.83;;;4.97;;
9445;SDS011;4761;49.490;10.908;2024-01-07T04:08:41;5.80;;;4.60;;
9445;SDS011;4761;49.490;10.908;2024-01-07T04:11:07;7.83;;;5.33;;
9445;SDS011;4761;49.490;10.908;2024-01-07T04:13:32;7.87;;;5.30;;
9445;SDS011;4761;49.490;10.908;2024-01-07T04:15:58;7.60;;;5.37;;
9445;SDS011;4761;49.490;10.908;2024-01-07T04:18:23;8.07;;;5.33;;
9445;SDS011;4761;49.490;10.908;2024-01-07T04:20:49;7.07;;;5.37;;
9445;SDS011;4761;49.490;10.908;2024-01-07T04:23:14;7.97;;;5.47;;
9445;SDS011;4761;49.490;10.908;2024-01-07T04:25:40;6.97;;;5.13;;
9445;SDS011;4761;49.490;10.908;2024-01-07T04:28:07;6.53;;;4.67;;
9445;SDS011;4761;49.490;10.908;2024-01-07T04:30:32;6.50;;;5.50;;
9445;SDS011;4761;49.490;10.908;2024-01-07T04:32:58;7.53;;;6.23;;
9445;SDS011;4761;49.490;10.908;2024-01-07T04:35:23;6.57;;;5.87;;
9445;SDS011;4761;49.490;10.908;2024-01-07T04:37:49;7.27;;;5.90;;
9445;SDS011;4761;49.490;10.908;2024-01-07T04:40:15;7.67;;;5.43;;
9445;SDS011;4761;49.490;10.908;2024-01-07T04:42:40;5.57;;;4.93;;
9445;SDS011;4761;49.490;10.908;2024-01-07T04:45:06;5.33;;;4.83;;
9445;SDS011;4761;49.490;10.908;2024-01-07T04:47:32;6.37;;;5.13;;
9445;SDS011;4761;49.490;10.908;2024-01-07T04:50:02;6.77;;;4.93;;
9445;SDS011;4761;49.490;10.908;2024-01-07T04:52:28;6.63;;;4.60;;
9445;SDS011;4761;49.490;10.908;2024-01-07T04:54:54;4.83;;;4.17;;
9445;SDS011;4761;49.490;10.908;2024-01-07T04:57:20;5.07;;;4.20;;
9445;SDS011;4761;49.490;10.908;2024-01-07T04:59:47;5.03;;;4.20;;
9445;SDS011;4761;49.490;10.908;2024-01-07T05:02:13;5.50;;;4.70;;
9445;SDS011;4761;49.490;10.908;2024-01-07T05:04:39;4.85;;;4.30;;
9445;SDS011;4761;49.490;10.908;2024-01-07T05:07:05;7.77;;;4.23;;
9445;SDS011;4761;49.490;10.908;2024-01-07T05:09:31;4.07;;;3.67;;
9445;SDS011;4761;49.490;10.908;2024-01-07T05:11:58;4.80;;;3.77;;
9445;SDS011;4761;49.490;10.908;2024-01-07T05:14:23;4.30;;;3.83;;
9445;SDS011;4761;49.490;10.908;2024-01-07T05:16:49;4.00;;;3.60;;
9445;SDS011;4761;49.490;10.908;2024-01-07T05:19:15;4.10;;;3.70;;
9445;SDS011;4761;49.490;10.908;2024-01-07T05:21:40;4.07;;;3.67;;
9445;SDS011;4761;49.490;10.908;2024-01-07T05:24:06;4.10;;;3.70;;
9445;SDS011;4761;49.490;10.908;2024-01-07T05:26:37;3.90;;;3.50;;
9445;SDS011;4761;49.490;10.908;2024-01-07T05:29:07;4.47;;;3.57;;
9445;SDS011;4761;49.490;10.908;2024-01-07T05:31:32;3.80;;;3.40;;
9445;SDS011;4761;49.490;10.908;2024-01-07T05:33:58;3.77;;;3.17;;
9445;SDS011;4761;49.490;10.908;2024-01-07T05:36:23;3.93;;;3.53;;
9445;SDS011;4761;49.490;10.908;2024-01-07T05:38:49;3.47;;;3.10;;
9445;SDS011;4761;49.490;10.908;2024-01-07T05:41:14;3.47;;;3.17;;
9445;SDS011;4761;49.490;10.908;2024-01-07T05:43:40;3.67;;;3.37;;
9445;SDS011;4761;49.490;10.908;2024-01-07T05:46:05;3.23;;;2.80;;
9445;SDS011;4761;49.490;10.908;2024-01-07T05:48:40;3.40;;;3.10;;
9445;SDS011;4761;49.490;10.908;2024-01-07T05:51:07;3.50;;;3.17;;
9445;SDS011;4761;49.490;10.908;2024-01-07T05:53:34;3.40;;;3.10;;
9445;SDS011;4761;49.490;10.908;2024-01-07T05:55:59;3.50;;;3.20;;
9445;SDS011;4761;49.490;10.908;2024-01-07T05:58:25;3.23;;;2.93;;
9445;SDS011;4761;49.490;10.908;2024-01-07T06:00:51;3.27;;;2.97;;
9445;SDS011;4761;49.490;10.908;2024-01-07T06:03:16;3.50;;;3.17;;
9445;SDS011;4761;49.490;10.908;2024-01-07T06:05:42;3.57;;;3.27;;
9445;SDS011;4761;49.490;10.908;2024-01-07T06:08:07;4.33;;;3.60;;
9445;SDS011;4761;49.490;10.908;2024-01-07T06:10:33;3.30;;;3.00;;
9445;SDS011;4761;49.490;10.908;2024-01-07T06:12:59;3.80;;;3.40;;
9445;SDS011;4761;49.490;10.908;2024-01-07T06:15:24;3.53;;;3.20;;
9445;SDS011;4761;49.490;10.908;2024-01-07T06:17:50;3.50;;;3.20;;
9445;SDS011;4761;49.490;10.908;2024-01-07T06:20:15;3.70;;;3.40;;
9445;SDS011;4761;49.490;10.908;2024-01-07T06:22:41;3.90;;;3.50;;
9445;SDS011;4761;49.490;10.908;2024-01-07T06:25:07;3.50;;;3.20;;
9445;SDS011;4761;49.490;10.908;2024-01-07T06:27:32;3.77;;;3.47;;
9445;SDS011;4761;49.490;10.908;2024-01-07T06:29:58;5.20;;;3.57;;
9445;SDS011;4761;49.490;10.908;2024-01-07T06:32:23;4.20;;;3.50;;
9445;SDS011;4761;49.490;10.908;2024-01-07T06:34:50;3.70;;;3.40;;
9445;SDS011;4761;49.490;10.908;2024-01-07T06:37:15;3.63;;;3.33;;
9445;SDS011;4761;49.490;10.908;2024-01-07T06:39:41;3.63;;;3.30;;
9445;SDS011;4761;49.490;10.908;2024-01-07T06:42:06;3.60;;;3.30;;
9445;SDS011;4761;49.490;10.908;2024-01-07T06:44:32;4.07;;;3.70;;
9445;SDS011;4761;49.490;10.908;2024-01-07T06:46:57;3.57;;;3.27;;
9445;SDS011;4761;49.490;10.908;2024-01-07T06:49:23;3.83;;;3.53;;
9445;SDS011;4761;49.490;10.908;2024-01-07T06:51:48;3.77;;;3.47;;
9445;SDS011;4761;49.490;10.908;2024-01-07T06:54:14;4.17;;;3.57;;
9445;SDS011;4761;49.490;10.908;2024-01-07T06:56:39;3.90;;;3.43;;
9445;SDS011;4761;49.490;10.908;2024-01-07T06:59:05;4.07;;;3.77;;
9445;SDS011;4761;49.490;10.908;2024-01-07T07:01:32;4.10;;;3.70;;
9445;SDS011;4761;49.490;10.908;2024-01-07T07:03:57;3.87;;;3.57;;
9445;SDS011;4761;49.490;10.908;2024-01-07T07:06:23;3.77;;;3.47;;
9445;SDS011;4761;49.490;10.908;2024-01-07T07:08:49;4.30;;;3.90;;
9445;SDS011;4761;49.490;10.908;2024-01-07T07:11:15;4.90;;;4.40;;
9445;SDS011;4761;49.490;10.908;2024-01-07T07:13:41;4.40;;;4.00;;
9445;SDS011;4761;49.490;10.908;2024-01-07T07:16:06;5.03;;;4.13;;
9445;SDS011;4761;49.490;10.908;2024-01-07T07:18:32;5.23;;;4.20;;
9445;SDS011;4761;49.490;10.908;2024-01-07T07:20:58;4.83;;;4.37;;
9445;SDS011;4761;49.490;10.908;2024-01-07T07:23:23;5.03;;;4.53;;
9445;SDS011;4761;49.490;10.908;2024-01-07T07:25:49;4.73;;;4.30;;
9445;SDS011;4761;49.490;10.908;2024-01-07T07:28:14;4.70;;;4.27;;
9445;SDS011;4761;49.490;10.908;2024-01-07T07:30:42;4.50;;;4.10;;
9445;SDS011;4761;49.490;10.908;2024-01-07T07:33:07;6.97;;;4.43;;
9445;SDS011;4761;49.490;10.908;2024-01-07T07:35:33;4.83;;;4.43;;
9445;SDS011;4761;49.490;10.908;2024-01-07T07:37:59;5.63;;;5.03;;
9445;SDS011;4761;49.490;10.908;2024-01-07T07:40:24;5.27;;;4.77;;
9445;SDS011;4761;49.490;10.908;2024-01-07T07:42:50;5.60;;;5.10;;
9445;SDS011;4761;49.490;10.908;2024-01-07T07:45:16;5.87;;;5.27;;
9445;SDS011;4761;49.490;10.908;2024-01-07T07:47:41;5.23;;;4.83;;
9445;SDS011;4761;49.490;10.908;2024-01-07T07:50:09;5.00;;;4.50;;
9445;SDS011;4761;49.490;10.908;2024-01-07T07:52:36;5.30;;;4.80;;
9445;SDS011;4761;49.490;10.908;2024-01-07T07:55:01;5.60;;;5.10;;
9445;SDS011;4761;49.490;10.908;2024-01-07T07:57:27;5.73;;;5.23;;
9445;SDS011;4761;49.490;10.908;2024-01-07T07:59:53;5.23;;;4.73;;
9445;SDS011;4761;49.490;10.908;2024-01-07T08:02:19;5.60;;;5.10;;
9445;SDS011;4761;49.490;10.908;2024-01-07T08:04:45;5.27;;;4.77;;
9445;SDS011;4761;49.490;10.908;2024-01-07T08:07:11;4.93;;;4.47;;
9445;SDS011;4761;49.490;10.908;2024-01-07T08:09:37;6.03;;;5.17;;
9445;SDS011;4761;49.490;10.908;2024-01-07T08:12:03;5.17;;;4.67;;
9445;SDS011;4761;49.490;10.908;2024-01-07T08:14:30;5.43;;;4.93;;
9445;SDS011;4761;49.490;10.908;2024-01-07T08:16:56;5.00;;;4.60;;
9445;SDS011;4761;49.490;10.908;2024-01-07T08:19:22;5.67;;;5.17;;
9445;SDS011;4761;49.490;10.908;2024-01-07T08:21:47;4.90;;;4.50;;
9445;SDS011;4761;49.490;10.908;2024-01-07T08:24:13;5.13;;;4.63;;
9445;SDS011;4761;49.490;10.908;2024-01-07T08:26:38;5.67;;;5.10;;
9445;SDS011;4761;49.490;10.908;2024-01-07T08:29:04;5.10;;;4.60;;
9445;SDS011;4761;49.490;10.908;2024-01-07T08:31:30;5.20;;;4.70;;
9445;SDS011;4761;49.490;10.908;2024-01-07T08:33:56;5.00;;;4.50;;
9445;SDS011;4761;49.490;10.908;2024-01-07T08:36:21;5.43;;;4.93;;
9445;SDS011;4761;49.490;10.908;2024-01-07T08:38:47;5.20;;;4.70;;
9445;SDS011;4761;49.490;10.908;2024-01-07T08:41:15;5.00;;;4.50;;
9445;SDS011;4761;49.490;10.908;2024-01-07T08:43:41;5.33;;;4.83;;
9445;SDS011;4761;49.490;10.908;2024-01-07T08:46:06;5.20;;;4.70;;
9445;SDS011;4761;49.490;10.908;2024-01-07T08:48:32;5.27;;;4.77;;
9445;SDS011;4761;49.490;10.908;2024-01-07T08:50:58;6.00;;;4.83;;
9445;SDS011;4761;49.490;10.908;2024-01-07T08:53:23;7.90;;;5.60;;
9445;SDS011;4761;49.490;10.908;2024-01-07T08:55:49;6.00;;;5.27;;
9445;SDS011;4761;49.490;10.908;2024-01-07T08:58:15;7.53;;;5.33;;
9445;SDS011;4761;49.490;10.908;2024-01-07T09:00:42;8.07;;;5.87;;
9445;SDS011;4761;49.490;10.908;2024-01-07T09:03:08;6.00;;;5.20;;
9445;SDS011;4761;49.490;10.908;2024-01-07T09:05:34;6.93;;;5.40;;
9445;SDS011;4761;49.490;10.908;2024-01-07T09:07:59;5.93;;;5.07;;
9445;SDS011;4761;49.490;10.908;2024-01-07T09:10:25;8.17;;;6.27;;
9445;SDS011;4761;49.490;10.908;2024-01-07T09:12:51;6.43;;;5.23;;
9445;SDS011;4761;49.490;10.908;2024-01-07T09:15:18;7.50;;;5.47;;
9445;SDS011;4761;49.490;10.908;2024-01-07T09:17:45;5.97;;;5.10;;
9445;SDS011;4761;49.490;10.908;2024-01-07T09:20:11;7.70;;;5.83;;
9445;SDS011;4761;49.490;10.908;2024-01-07T09:22:37;7.33;;;5.87;;
9445;SDS011;4761;49.490;10.908;2024-01-07T09:25:03;7.00;;;5.83;;
9445;SDS011;4761;49.490;10.908;2024-01-07T09:27:30;7.80;;;6.07;;
9445;SDS011;4761;49.490;10.908;2024-01-07T09:29:56;6.93;;;5.87;;
9445;SDS011;4761;49.490;10.908;2024-01-07T09:32:22;6.43;;;5.40;;
9445;SDS011;4761;49.490;10.908;2024-01-07T09:34:47;6.80;;;5.70;;
9445;SDS011;4761;49.490;10.908;2024-01-07T09:37:13;7.27;;;6.07;;
9445;SDS011;4761;49.490;10.908;2024-01-07T09:39:42;6.20;;;5.60;;
9445;SDS011;4761;49.490;10.908;2024-01-07T09:42:14;8.07;;;5.60;;
9445;SDS011;4761;49.490;10.908;2024-01-07T09:44:41;8.77;;;6.85;;
9445;SDS011;4761;49.490;10.908;2024-01-07T09:47:11;8.30;;;6.33;;
9445;SDS011;4761;49.490;10.908;2024-01-07T09:49:40;7.90;;;6.17;;
9445;SDS011;4761;49.490;10.908;2024-01-07T09:52:08;10.80;;;6.70;;
9445;SDS011;4761;49.490;10.908;2024-01-07T09:54:35;8.87;;;6.67;;
9445;SDS011;4761;49.490;10.908;2024-01-07T09:57:05;11.10;;;7.53;;
9445;SDS011;4761;49.490;10.908;2024-01-07T09:59:32;9.47;;;7.07;;
9445;SDS011;4761;49.490;10.908;2024-01-07T10:01:58;8.60;;;6.47;;
9445;SDS011;4761;49.490;10.908;2024-01-07T10:04:24;7.87;;;6.70;;
9445;SDS011;4761;49.490;10.908;2024-01-07T10:06:51;7.83;;;6.73;;
9445;SDS011;4761;49.490;10.908;2024-01-07T10:09:19;7.77;;;6.03;;
9445;SDS011;4761;49.490;10.908;2024-01-07T10:11:46;7.17;;;6.10;;
9445;SDS011;4761;49.490;10.908;2024-01-07T10:14:12;8.83;;;6.77;;
9445;SDS011;4761;49.490;10.908;2024-01-07T10:16:38;7.53;;;6.50;;
9445;SDS011;4761;49.490;10.908;2024-01-07T10:19:04;7.90;;;6.10;;
9445;SDS011;4761;49.490;10.908;2024-01-07T10:21:29;8.00;;;6.17;;
9445;SDS011;4761;49.490;10.908;2024-01-07T10:24:08;7.33;;;5.70;;
9445;SDS011;4761;49.490;10.908;2024-01-07T10:26:35;7.10;;;5.83;;
9445;SDS011;4761;49.490;10.908;2024-01-07T10:29:02;7.00;;;6.27;;
9445;SDS011;4761;49.490;10.908;2024-01-07T10:31:27;7.83;;;5.93;;
9445;SDS011;4761;49.490;10.908;2024-01-07T10:33:54;6.70;;;5.83;;
9445;SDS011;4761;49.490;10.908;2024-01-07T10:36:21;7.70;;;6.10;;
9445;SDS011;4761;49.490;10.908;2024-01-07T10:38:47;6.63;;;5.50;;
9445;SDS011;4761;49.490;10.908;2024-01-07T10:41:14;6.80;;;5.80;;
9445;SDS011;4761;49.490;10.908;2024-01-07T10:43:41;6.60;;;5.50;;
9445;SDS011;4761;49.490;10.908;2024-01-07T10:46:11;6.97;;;6.20;;
9445;SDS011;4761;49.490;10.908;2024-01-07T10:48:38;7.73;;;6.20;;
9445;SDS011;4761;49.490;10.908;2024-01-07T10:51:15;6.67;;;5.73;;
9445;SDS011;4761;49.490;10.908;2024-01-07T10:53:43;6.93;;;6.00;;
9445;SDS011;4761;49.490;10.908;2024-01-07T10:56:13;7.10;;;5.97;;
9445;SDS011;4761;49.490;10.908;2024-01-07T10:58:41;6.90;;;5.47;;
9445;SDS011;4761;49.490;10.908;2024-01-07T11:01:07;6.67;;;5.80;;
9445;SDS011;4761;49.490;10.908;2024-01-07T11:03:38;6.40;;;5.57;;
9445;SDS011;4761;49.490;10.908;2024-01-07T11:06:31;6.50;;;5.80;;
9445;SDS011;4761;49.490;10.908;2024-01-07T11:11:51;7.20;;;5.50;;
9445;SDS011;4761;49.490;10.908;2024-01-07T11:14:59;6.33;;;5.70;;
9445;SDS011;4761;49.490;10.908;2024-01-07T11:17:10;8.23;;;6.20;;
9445;SDS011;4761;49.490;10.908;2024-01-07T11:19:37;6.70;;;5.80;;
9445;SDS011;4761;49.490;10.908;2024-01-07T11:22:22;6.33;;;5.40;;
9445;SDS011;4761;49.490;10.908;2024-01-07T11:24:54;6.10;;;5.43;;
9445;SDS011;4761;49.490;10.908;2024-01-07T11:27:24;6.20;;;5.60;;
9445;SDS011;4761;49.490;10.908;2024-01-07T11:29:57;6.33;;;5.70;;
9445;SDS011;4761;49.490;10.908;2024-01-07T11:32:29;6.70;;;5.90;;
9445;SDS011;4761;49.490;10.908;2024-01-07T11:34:55;7.57;;;6.00;;
9445;SDS011;4761;49.490;10.908;2024-01-07T11:37:24;7.40;;;5.87;;
9445;SDS011;4761;49.490;10.908;2024-01-07T11:39:51;6.60;;;5.50;;
9445;SDS011;4761;49.490;10.908;2024-01-07T11:42:20;5.90;;;5.27;;
9445;SDS011;4761;49.490;10.908;2024-01-07T11:44:51;6.20;;;4.97;;
9445;SDS011;4761;49.490;10.908;2024-01-07T11:47:18;6.30;;;5.60;;
9445;SDS011;4761;49.490;10.908;2024-01-07T11:49:44;5.80;;;5.20;;
9445;SDS011;4761;49.490;10.908;2024-01-07T11:52:10;6.53;;;5.37;;
9445;SDS011;4761;49.490;10.908;2024-01-07T11:54:37;6.97;;;5.60;;
9445;SDS011;4761;49.490;10.908;2024-01-07T11:57:03;6.87;;;5.40;;
9445;SDS011;4761;49.490;10.908;2024-01-07T11:59:36;6.80;;;5.63;;
9445;SDS011;4761;49.490;10.908;2024-01-07T12:02:01;7.57;;;5.40;;
9445;SDS011;4761;49.490;10.908;2024-01-07T12:04:29;6.23;;;5.13;;
9445;SDS011;4761;49.490;10.908;2024-01-07T12:06:55;7.20;;;5.57;;
9445;SDS011;4761;49.490;10.908;2024-01-07T12:09:21;6.33;;;5.63;;
9445;SDS011;4761;49.490;10.908;2024-01-07T12:11:46;5.57;;;5.07;;
9445;SDS011;4761;49.490;10.908;2024-01-07T12:14:12;6.77;;;5.83;;
9445;SDS011;4761;49.490;10.908;2024-01-07T12:16:38;6.50;;;5.37;;
9445;SDS011;4761;49.490;10.908;2024-01-07T12:19:04;6.10;;;5.50;;
9445;SDS011;4761;49.490;10.908;2024-01-07T12:21:29;6.57;;;5.17;;
9445;SDS011;4761;49.490;10.908;2024-01-07T12:23:55;6.27;;;5.50;;
9445;SDS011;4761;49.490;10.908;2024-01-07T12:26:25;6.10;;;5.50;;
9445;SDS011;4761;49.490;10.908;2024-01-07T12:28:52;5.70;;;5.17;;
9445;SDS011;4761;49.490;10.908;2024-01-07T12:31:19;6.77;;;5.27;;
9445;SDS011;4761;49.490;10.908;2024-01-07T12:33:45;6.33;;;5.00;;
9445;SDS011;4761;49.490;10.908;2024-01-07T12:36:11;6.80;;;5.23;;
9445;SDS011;4761;49.490;10.908;2024-01-07T12:38:37;5.90;;;5.20;;
9445;SDS011;4761;49.490;10.908;2024-01-07T12:41:03;6.17;;;5.00;;
9445;SDS011;4761;49.490;10.908;2024-01-07T12:43:29;5.67;;;4.70;;
9445;SDS011;4761;49.490;10.908;2024-01-07T12:45:55;7.03;;;5.37;;
9445;SDS011;4761;49.490;10.908;2024-01-07T12:48:21;5.73;;;5.07;;
9445;SDS011;4761;49.490;10.908;2024-01-07T12:50:47;6.03;;;4.90;;
9445;SDS011;4761;49.490;10.908;2024-01-07T12:53:13;5.60;;;5.00;;
9445;SDS011;4761;49.490;10.908;2024-01-07T12:55:39;5.60;;;4.90;;
9445;SDS011;4761;49.490;10.908;2024-01-07T12:58:05;6.30;;;5.33;;
9445;SDS011;4761;49.490;10.908;2024-01-07T13:00:30;6.07;;;5.17;;
9445;SDS011;4761;49.490;10.908;2024-01-07T13:02:56;6.33;;;5.40;;
9445;SDS011;4761;49.490;10.908;2024-01-07T13:05:22;5.97;;;4.83;;
9445;SDS011;4761;49.490;10.908;2024-01-07T13:07:48;6.73;;;5.30;;
9445;SDS011;4761;49.490;10.908;2024-01-07T13:10:15;6.43;;;5.60;;
9445;SDS011;4761;49.490;10.908;2024-01-07T13:12:40;5.43;;;4.77;;
9445;SDS011;4761;49.490;10.908;2024-01-07T13:15:06;5.97;;;5.20;;
9445;SDS011;4761;49.490;10.908;2024-01-07T13:17:32;4.97;;;4.47;;
9445;SDS011;4761;49.490;10.908;2024-01-07T13:19:58;5.40;;;4.83;;
9445;SDS011;4761;49.490;10.908;2024-01-07T13:22:24;5.60;;;5.00;;
9445;SDS011;4761;49.490;10.908;2024-01-07T13:24:50;5.57;;;4.90;;
9445;SDS011;4761;49.490;10.908;2024-01-07T13:27:15;8.43;;;4.80;;
9445;SDS011;4761;49.490;10.908;2024-01-07T13:29:43;6.90;;;5.57;;
9445;SDS011;4761;49.490;10.908;2024-01-07T13:32:12;6.77;;;4.87;;
9445;SDS011;4761;49.490;10.908;2024-01-07T13:34:40;5.23;;;4.70;;
9445;SDS011;4761;49.490;10.908;2024-01-07T13:37:05;5.50;;;4.90;;
9445;SDS011;4761;49.490;10.908;2024-01-07T13:39:31;5.57;;;4.73;;
9445;SDS011;4761;49.490;10.908;2024-01-07T13:41:56;5.10;;;4.60;;
9445;SDS011;4761;49.490;10.908;2024-01-07T13:44:22;5.33;;;4.40;;
9445;SDS011;4761;49.490;10.908;2024-01-07T13:46:48;5.55;;;4.53;;
9445;SDS011;4761;49.490;10.908;2024-01-07T13:49:14;5.33;;;4.53;;
9445;SDS011;4761;49.490;10.908;2024-01-07T13:51:40;6.20;;;4.47;;
9445;SDS011;4761;49.490;10.908;2024-01-07T13:54:06;5.23;;;4.10;;
9445;SDS011;4761;49.490;10.908;2024-01-07T13:56:32;4.90;;;4.30;;
9445;SDS011;4761;49.490;10.908;2024-01-07T13:59:00;5.33;;;4.50;;
9445;SDS011;4761;49.490;10.908;2024-01-07T14:01:28;5.23;;;4.73;;
9445;SDS011;4761;49.490;10.908;2024-01-07T14:03:54;5.87;;;4.83;;
9445;SDS011;4761;49.490;10.908;2024-01-07T14:06:19;5.40;;;4.70;;
9445;SDS011;4761;49.490;10.908;2024-01-07T14:08:46;5.53;;;4.20;;
9445;SDS011;4761;49.490;10.908;2024-01-07T14:11:11;5.27;;;4.03;;
9445;SDS011;4761;49.490;10.908;2024-01-07T14:13:37;5.45;;;4.50;;
9445;SDS011;4761;49.490;10.908;2024-01-07T14:16:03;5.10;;;4.50;;
9445;SDS011;4761;49.490;10.908;2024-01-07T14:18:29;4.50;;;4.10;;
9445;SDS011;4761;49.490;10.908;2024-01-07T14:20:54;4.90;;;3.83;;
9445;SDS011;4761;49.490;10.908;2024-01-07T14:23:20;5.47;;;4.50;;
9445;SDS011;4761;49.490;10.908;2024-01-07T14:25:45;6.13;;;4.40;;
9445;SDS011;4761;49.490;10.908;2024-01-07T14:28:11;4.87;;;3.93;;
9445;SDS011;4761;49.490;10.908;2024-01-07T14:30:37;5.23;;;4.33;;
9445;SDS011;4761;49.490;10.908;2024-01-07T14:33:03;5.47;;;4.40;;
9445;SDS011;4761;49.490;10.908;2024-01-07T14:35:29;5.57;;;4.33;;
9445;SDS011;4761;49.490;10.908;2024-01-07T14:37:55;5.33;;;4.27;;
9445;SDS011;4761;49.490;10.908;2024-01-07T14:40:23;5.27;;;4.17;;
9445;SDS011;4761;49.490;10.908;2024-01-07T14:42:48;5.83;;;4.27;;
9445;SDS011;4761;49.490;10.908;2024-01-07T14:45:14;4.03;;;3.57;;
9445;SDS011;4761;49.490;10.908;2024-01-07T14:47:40;3.93;;;3.37;;
9445;SDS011;4761;49.490;10.908;2024-01-07T14:50:05;5.53;;;4.13;;
9445;SDS011;4761;49.490;10.908;2024-01-07T14:52:32;5.20;;;4.03;;
9445;SDS011;4761;49.490;10.908;2024-01-07T14:54:57;5.20;;;3.83;;
9445;SDS011;4761;49.490;10.908;2024-01-07T14:57:23;5.17;;;3.60;;